Time;durP1;ratioP1;P1;durP2;ratioP2;P2;SDS_P1;SDS_P2;PMS_P1;PMS_P2;Temp;Humidity;BMP_temperature;BMP_pressure;BME280_temperature;BME280_humidity;BME280_pressure;Samples;Min_cycle;Max_cycle;Signal;HPM_P1;HPM_P2
2021/05/04 00:01:41;;;;;;;3.97;2.30;;;11.40;99.90;;;;;;5051638;28;20633;-80
2021/05/04 00:04:07;;;;;;;2.90;2.60;;;11.50;99.90;;;;;;5051584;28;20415;-79
2021/05/04 00:06:32;;;;;;;3.00;2.40;;;11.50;99.90;;;;;;5054184;28;20706;-79
2021/05/04 00:08:58;;;;;;;3.37;2.57;;;11.50;99.90;;;;;;5022325;28;20451;-82
2021/05/04 00:11:23;;;;;;;3.47;2.20;;;11.50;99.90;;;;;;5056708;28;20208;-80
2021/05/04 00:13:49;;;;;;;3.77;1.77;;;11.60;99.90;;;;;;5055521;28;20174;-80
2021/05/04 00:16:15;;;;;;;2.63;2.00;;;11.60;99.90;;;;;;5055208;28;20196;-78
2021/05/04 00:18:41;;;;;;;2.47;2.00;;;11.60;99.90;;;;;;5056601;28;20244;-78
2021/05/04 00:21:07;;;;;;;6.10;2.70;;;11.70;99.90;;;;;;5055501;28;20526;-80
2021/05/04 00:23:32;;;;;;;5.20;2.70;;;11.80;99.90;;;;;;5054999;28;20685;-80
2021/05/04 00:25:58;;;;;;;2.83;2.40;;;11.80;99.90;;;;;;5046122;28;20224;-81
2021/05/04 00:28:24;;;;;;;6.10;2.90;;;11.70;99.90;;;;;;5056318;28;20181;-79
2021/05/04 00:30:51;;;;;;;3.40;2.53;;;11.70;99.90;;;;;;5056490;28;20443;-79
2021/05/04 00:33:17;;;;;;;2.87;2.03;;;11.80;99.90;;;;;;5055111;28;20494;-80
2021/05/04 00:35:43;;;;;;;2.30;2.10;;;11.70;99.90;;;;;;5038389;28;20408;-81
2021/05/04 00:38:10;;;;;;;4.53;3.27;;;11.80;99.90;;;;;;5056231;28;20389;-77
2021/05/04 00:40:36;;;;;;;4.10;1.70;;;11.90;99.90;;;;;;5056100;28;20529;-78
2021/05/04 00:43:02;;;;;;;2.20;2.00;;;11.90;99.90;;;;;;5054947;28;20408;-77
2021/05/04 00:45:27;;;;;;;2.17;1.87;;;11.90;99.90;;;;;;5055739;28;20169;-80
2021/05/04 00:47:53;;;;;;;2.70;2.20;;;11.90;99.90;;;;;;5054141;28;20433;-78
2021/05/04 00:50:19;;;;;;;3.83;1.83;;;11.90;99.90;;;;;;5054277;28;20174;-78
2021/05/04 00:52:45;;;;;;;2.33;2.13;;;12.00;99.90;;;;;;5055246;28;20327;-77
2021/05/04 00:55:11;;;;;;;3.57;1.53;;;12.00;99.90;;;;;;5055351;28;20454;-78
2021/05/04 00:57:37;;;;;;;2.63;2.20;;;12.10;99.90;;;;;;5054677;28;20432;-78
2021/05/04 01:00:07;;;;;;;2.60;1.90;;;12.10;99.90;;;;;;5055914;28;20404;-77
2021/05/04 01:02:34;;;;;;;2.50;1.90;;;12.10;99.90;;;;;;5055908;28;20491;-80
2021/05/04 01:05:01;;;;;;;3.40;1.90;;;12.20;99.90;;;;;;5055490;28;20896;-77
2021/05/04 01:07:27;;;;;;;2.30;2.10;;;12.30;99.90;;;;;;5055499;28;20443;-80
2021/05/04 01:09:54;;;;;;;2.10;1.90;;;12.30;99.90;;;;;;5037920;28;20423;-80
2021/05/04 01:12:20;;;;;;;2.93;1.47;;;12.30;99.90;;;;;;5055333;28;20643;-80
2021/05/04 01:14:46;;;;;;;5.23;1.53;;;12.50;99.90;;;;;;5053259;28;20447;-78
2021/05/04 01:17:12;;;;;;;3.10;1.60;;;12.50;99.90;;;;;;5050050;28;20834;-79
2021/05/04 01:19:37;;;;;;;4.87;1.90;;;12.50;99.50;;;;;;5037012;28;20498;-80
2021/05/04 01:22:03;;;;;;;2.53;1.40;;;12.60;99.40;;;;;;5055374;28;20681;-77
2021/05/04 01:24:29;;;;;;;1.67;1.57;;;12.60;98.80;;;;;;5054186;28;20183;-78
2021/05/04 01:26:58;;;;;;;3.00;1.40;;;12.70;98.70;;;;;;5054825;28;20268;-78
2021/05/04 01:29:25;;;;;;;3.67;1.50;;;12.70;99.10;;;;;;5055421;28;20169;-79
2021/05/04 01:31:51;;;;;;;1.90;1.80;;;12.90;98.30;;;;;;5037464;28;20447;-78
2021/05/04 01:34:17;;;;;;;3.40;2.00;;;12.90;98.10;;;;;;5053963;28;20418;-79
2021/05/04 01:36:42;;;;;;;2.10;1.20;;;12.90;97.80;;;;;;5053300;28;20414;-78
2021/05/04 01:39:10;;;;;;;2.03;1.57;;;12.90;97.90;;;;;;5053775;28;20177;-80
2021/05/04 01:41:36;;;;;;;3.90;1.47;;;13.00;97.60;;;;;;5054976;28;20254;-80
2021/05/04 01:44:04;;;;;;;3.20;1.40;;;13.00;97.50;;;;;;5055074;28;20408;-80
2021/05/04 01:46:33;;;;;;;5.63;1.67;;;13.00;97.30;;;;;;5054614;28;20436;-78
2021/05/04 01:49:05;;;;;;;2.20;1.47;;;12.90;96.80;;;;;;5054696;28;20961;-79
2021/05/04 01:51:31;;;;;;;4.20;1.63;;;13.00;96.40;;;;;;5053533;28;20463;-80
2021/05/04 01:53:58;;;;;;;2.20;1.60;;;13.00;96.60;;;;;;5053478;28;20419;-80
2021/05/04 01:56:24;;;;;;;7.03;1.90;;;13.00;95.90;;;;;;5054403;28;20788;-80
2021/05/04 01:58:50;;;;;;;1.40;1.30;;;13.00;95.30;;;;;;5054626;28;20408;-79
2021/05/04 02:01:16;;;;;;;9.67;1.80;;;13.00;95.00;;;;;;5054682;28;20775;-80
2021/05/04 02:03:42;;;;;;;1.77;1.33;;;13.10;94.00;;;;;;5053493;28;20213;-81
2021/05/04 02:06:08;;;;;;;1.97;1.60;;;13.00;94.10;;;;;;5054360;28;20854;-80
2021/05/04 02:08:33;;;;;;;1.77;1.10;;;13.00;94.00;;;;;;5053118;28;20443;-79
2021/05/04 02:10:59;;;;;;;2.50;1.50;;;13.00;93.00;;;;;;5054407;28;20807;-80
2021/05/04 02:13:25;;;;;;;2.67;1.47;;;13.00;93.70;;;;;;5053217;28;20576;-81
2021/05/04 02:15:51;;;;;;;1.40;1.20;;;12.90;91.90;;;;;;5052743;28;20284;-80
2021/05/04 02:18:17;;;;;;;7.37;1.37;;;12.80;94.20;;;;;;5054435;28;20166;-79
2021/05/04 02:20:43;;;;;;;4.53;1.20;;;12.50;98.00;;;;;;5054249;28;20955;-77
2021/05/04 02:23:11;;;;;;;10.73;1.70;;;12.30;99.90;;;;;;5054267;28;20408;-78
2021/05/04 02:25:36;;;;;;;2.47;1.07;;;12.10;99.90;;;;;;5052114;28;20435;-79
2021/05/04 02:28:03;;;;;;;4.27;1.40;;;11.70;99.90;;;;;;5053963;28;20403;-80
2021/05/04 02:30:31;;;;;;;9.83;1.60;;;11.40;99.90;;;;;;5053858;28;20169;-81
2021/05/04 02:32:56;;;;;;;2.40;1.00;;;11.20;99.90;;;;;;5054030;28;20458;-79
2021/05/04 02:35:22;;;;;;;2.23;1.50;;;11.00;99.90;;;;;;5053681;28;20459;-79
2021/05/04 02:37:48;;;;;;;2.40;1.63;;;10.60;99.90;;;;;;5054091;28;20204;-79
2021/05/04 02:40:14;;;;;;;2.25;1.48;;;10.30;99.90;;;;;;5036023;28;20184;-79
2021/05/04 02:42:40;;;;;;;2.83;1.53;;;10.20;99.90;;;;;;5053874;28;20645;-78
2021/05/04 02:45:06;;;;;;;2.63;1.40;;;10.00;99.90;;;;;;5053573;28;20170;-78
2021/05/04 02:47:32;;;;;;;3.25;1.30;;;9.90;99.90;;;;;;5053539;28;20193;-77
2021/05/04 02:49:57;;;;;;;1.87;1.50;;;9.70;99.90;;;;;;5053803;28;20170;-79
2021/05/04 02:52:23;;;;;;;1.77;1.43;;;9.60;99.90;;;;;;5051990;28;20463;-77
2021/05/04 02:54:48;;;;;;;3.03;2.40;;;9.50;99.90;;;;;;5044026;28;20506;-79
2021/05/04 02:57:16;;;;;;;2.83;1.53;;;9.30;99.90;;;;;;5033511;28;20269;-79
2021/05/04 02:59:42;;;;;;;4.97;1.33;;;9.30;99.90;;;;;;5033268;28;20177;-79
2021/05/04 03:02:07;;;;;;;6.00;2.43;;;9.20;99.90;;;;;;5032588;28;20566;-78
2021/05/04 03:04:33;;;;;;;1.93;1.60;;;9.00;99.90;;;;;;5033382;28;20220;-79
2021/05/04 03:06:58;;;;;;;1.77;1.50;;;8.90;99.90;;;;;;5033375;28;20190;-78
2021/05/04 03:09:24;;;;;;;2.27;1.60;;;8.80;99.90;;;;;;5032458;28;20607;-79
2021/05/04 03:11:49;;;;;;;4.37;1.70;;;8.70;99.90;;;;;;5032203;28;20282;-79
2021/05/04 03:14:15;;;;;;;2.90;1.53;;;8.60;99.90;;;;;;5033495;28;20614;-78
2021/05/04 03:16:41;;;;;;;4.00;2.13;;;8.60;99.90;;;;;;5033044;28;20186;-78
2021/05/04 03:19:06;;;;;;;3.33;1.70;;;8.50;99.90;;;;;;5033439;28;20231;-77
2021/05/04 03:21:32;;;;;;;1.80;1.70;;;8.50;99.90;;;;;;5033312;28;20177;-76
2021/05/04 03:23:57;;;;;;;2.37;1.50;;;8.40;99.90;;;;;;5032411;28;20686;-76
2021/05/04 03:26:23;;;;;;;2.60;1.67;;;8.40;99.90;;;;;;5052327;28;20205;-79
2021/05/04 03:28:49;;;;;;;1.97;1.50;;;8.40;99.90;;;;;;5052853;28;20231;-76
2021/05/04 03:31:14;;;;;;;2.10;1.63;;;8.40;99.90;;;;;;5052911;28;20323;-78
2021/05/04 03:33:40;;;;;;;8.60;2.00;;;8.50;99.90;;;;;;5052864;28;20223;-78
2021/05/04 03:36:05;;;;;;;3.77;1.50;;;8.50;99.90;;;;;;5052810;28;20201;-77
2021/05/04 03:38:32;;;;;;;1.53;1.43;;;8.50;99.90;;;;;;5053255;28;20231;-77
2021/05/04 03:40:58;;;;;;;1.55;1.40;;;8.60;99.90;;;;;;5052810;28;20180;-79
2021/05/04 03:43:23;;;;;;;1.80;1.07;;;8.60;99.90;;;;;;5055956;28;20275;-78
2021/05/04 03:45:49;;;;;;;2.97;1.90;;;8.60;99.90;;;;;;5056706;28;20200;-79
2021/05/04 03:48:15;;;;;;;2.03;1.67;;;8.60;99.90;;;;;;5057192;28;20219;-78
2021/05/04 03:50:40;;;;;;;3.63;1.80;;;8.60;99.90;;;;;;5054868;28;20638;-79
2021/05/04 03:53:07;;;;;;;1.67;1.40;;;8.60;99.90;;;;;;5037425;28;20235;-81
2021/05/04 03:55:33;;;;;;;1.90;1.65;;;8.60;99.90;;;;;;5036655;28;20171;-80
2021/05/04 03:57:58;;;;;;;1.83;1.47;;;8.50;99.90;;;;;;5035695;28;20166;-81
2021/05/04 04:00:24;;;;;;;2.50;2.10;;;8.60;99.90;;;;;;5036954;28;20654;-81
2021/05/04 04:02:51;;;;;;;4.23;2.07;;;8.50;99.90;;;;;;5035923;28;20175;-78
2021/05/04 04:05:17;;;;;;;3.03;1.75;;;8.60;99.90;;;;;;5035533;28;20178;-79
2021/05/04 04:07:43;;;;;;;2.10;1.40;;;8.50;99.90;;;;;;5037056;28;20622;-80
2021/05/04 04:10:11;;;;;;;5.90;1.77;;;8.50;99.90;;;;;;5035705;28;20212;-82
2021/05/04 04:12:39;;;;;;;4.88;1.90;;;8.50;99.90;;;;;;5036720;28;20228;-83
2021/05/04 04:15:06;;;;;;;1.70;1.23;;;8.50;99.90;;;;;;5035521;28;20512;-82
2021/05/04 04:17:32;;;;;;;3.28;1.45;;;8.50;99.90;;;;;;5036617;28;20277;-83
2021/05/04 04:19:57;;;;;;;7.43;1.97;;;8.40;99.90;;;;;;5035659;28;20257;-81
2021/05/04 04:22:24;;;;;;;1.50;1.40;;;8.40;99.90;;;;;;5035577;28;20182;-83
2021/05/04 04:24:53;;;;;;;1.50;1.40;;;8.30;99.90;;;;;;5039720;28;20272;-80
2021/05/04 04:27:20;;;;;;;1.55;1.23;;;8.30;99.90;;;;;;5055292;28;20273;-82
2021/05/04 04:29:45;;;;;;;4.80;1.73;;;8.40;99.90;;;;;;5055253;28;20511;-80
2021/05/04 04:32:11;;;;;;;2.93;1.53;;;8.40;99.90;;;;;;5055105;28;20203;-80
2021/05/04 04:34:36;;;;;;;4.50;1.50;;;8.40;99.90;;;;;;5054837;28;20173;-80
2021/05/04 04:37:02;;;;;;;1.53;1.20;;;8.30;99.90;;;;;;5056212;28;20196;-83
2021/05/04 04:39:28;;;;;;;1.60;1.50;;;8.30;99.90;;;;;;5055208;28;20166;-81
2021/05/04 04:41:53;;;;;;;2.73;1.90;;;8.40;99.90;;;;;;5055146;28;20184;-82
2021/05/04 04:44:19;;;;;;;1.20;1.10;;;8.40;99.90;;;;;;5054910;28;20170;-83
2021/05/04 04:46:45;;;;;;;4.37;1.50;;;8.50;99.90;;;;;;5055793;28;20204;-80
2021/05/04 04:49:15;;;;;;;3.07;1.30;;;8.40;99.90;;;;;;5041277;28;20232;-80
2021/05/04 04:51:41;;;;;;;5.40;1.90;;;8.50;99.90;;;;;;5055509;28;20546;-82
2021/05/04 04:54:08;;;;;;;1.42;1.33;;;8.50;99.90;;;;;;5054827;28;20177;-82
2021/05/04 04:56:34;;;;;;;2.15;1.58;;;8.50;99.90;;;;;;5037668;28;20289;-82
2021/05/04 04:59:00;;;;;;;2.63;1.52;;;8.50;99.90;;;;;;5056186;28;20169;-80
2021/05/04 05:01:26;;;;;;;1.65;1.55;;;8.50;99.90;;;;;;5054593;28;20174;-81
2021/05/04 05:03:52;;;;;;;3.97;1.43;;;8.60;99.90;;;;;;5054708;28;20177;-79
2021/05/04 05:06:18;;;;;;;2.60;1.47;;;8.60;99.90;;;;;;5054276;28;20221;-80
2021/05/04 05:08:43;;;;;;;1.37;1.03;;;8.60;99.90;;;;;;5055551;28;20185;-80
2021/05/04 05:11:09;;;;;;;1.67;1.57;;;8.70;99.90;;;;;;5037628;28;20300;-80
2021/05/04 05:13:35;;;;;;;1.63;1.53;;;8.80;99.90;;;;;;5054447;28;20166;-81
2021/05/04 05:16:00;;;;;;;4.20;1.57;;;8.70;99.90;;;;;;5055246;28;20286;-81
2021/05/04 05:18:26;;;;;;;1.50;1.40;;;8.70;99.90;;;;;;5037753;28;20177;-80
2021/05/04 05:20:52;;;;;;;1.43;1.20;;;8.70;99.90;;;;;;5053396;28;20534;-79
2021/05/04 05:23:18;;;;;;;1.87;1.53;;;8.70;99.90;;;;;;5055287;28;20178;-80
2021/05/04 05:25:43;;;;;;;1.90;1.25;;;8.80;99.90;;;;;;5054834;28;20618;-80
2021/05/04 05:28:09;;;;;;;1.97;1.30;;;8.80;99.90;;;;;;5053610;28;20260;-80
2021/05/04 05:30:35;;;;;;;1.30;1.10;;;8.80;99.90;;;;;;5037105;28;20201;-81
2021/05/04 05:33:01;;;;;;;1.87;1.60;;;8.90;99.90;;;;;;5054313;28;20432;-79
2021/05/04 05:35:27;;;;;;;1.73;1.10;;;8.90;99.90;;;;;;5053727;28;20177;-80
2021/05/04 05:37:53;;;;;;;1.90;1.08;;;9.00;99.90;;;;;;5055392;28;20621;-81
2021/05/04 05:40:18;;;;;;;2.00;1.30;;;8.90;99.90;;;;;;5053868;28;20184;-81
2021/05/04 05:42:44;;;;;;;4.80;1.40;;;9.10;99.90;;;;;;5053686;28;20173;-79
2021/05/04 05:45:10;;;;;;;1.93;0.90;;;9.10;99.90;;;;;;5037060;28;20536;-81
2021/05/04 05:47:36;;;;;;;1.00;0.83;;;9.10;99.90;;;;;;5037031;28;20213;-80
2021/05/04 05:50:02;;;;;;;1.25;1.15;;;9.10;99.90;;;;;;5053613;28;20435;-79
2021/05/04 05:52:28;;;;;;;1.20;1.00;;;9.10;99.90;;;;;;5053257;28;20212;-80
2021/05/04 05:54:53;;;;;;;1.53;1.20;;;9.10;99.90;;;;;;5054196;28;20177;-80
2021/05/04 05:57:19;;;;;;;1.40;1.13;;;9.10;99.90;;;;;;5053375;28;20193;-81
2021/05/04 05:59:46;;;;;;;1.70;0.90;;;9.20;99.90;;;;;;5054368;28;20181;-81
2021/05/04 06:02:12;;;;;;;1.30;1.20;;;9.20;99.90;;;;;;5054408;28;20288;-81
2021/05/04 06:04:37;;;;;;;1.57;1.10;;;9.30;99.90;;;;;;5053892;28;20209;-81
2021/05/04 06:07:03;;;;;;;1.30;1.00;;;9.30;99.90;;;;;;5054112;28;20672;-80
2021/05/04 06:09:29;;;;;;;1.30;1.20;;;9.30;99.90;;;;;;5054251;28;20188;-79
2021/05/04 06:11:54;;;;;;;3.73;1.17;;;9.40;99.90;;;;;;5054211;28;20251;-79
2021/05/04 06:14:20;;;;;;;1.83;1.40;;;9.40;99.90;;;;;;5054384;28;20165;-84
2021/05/04 06:16:46;;;;;;;1.33;1.00;;;9.40;99.90;;;;;;5035116;28;20197;-84
2021/05/04 06:19:12;;;;;;;1.43;1.33;;;9.40;99.90;;;;;;5053378;28;20177;-82
2021/05/04 06:21:38;;;;;;;2.20;1.40;;;9.30;99.90;;;;;;5036335;28;20177;-85
2021/05/04 06:24:04;;;;;;;1.57;1.47;;;9.40;99.90;;;;;;5054678;28;20408;-81
2021/05/04 06:26:30;;;;;;;4.80;1.30;;;9.40;99.90;;;;;;5051382;28;20205;-82
2021/05/04 06:28:56;;;;;;;4.10;1.10;;;9.50;99.90;;;;;;5052919;28;20177;-82
2021/05/04 06:31:23;;;;;;;1.20;1.03;;;9.50;99.90;;;;;;5036711;28;20242;-81
2021/05/04 06:33:48;;;;;;;2.45;1.35;;;9.50;99.90;;;;;;5053753;28;20253;-81
2021/05/04 06:36:14;;;;;;;2.10;1.23;;;9.60;99.90;;;;;;5052205;28;20301;-82
2021/05/04 06:38:40;;;;;;;1.93;1.33;;;9.60;99.90;;;;;;5052796;28;20180;-83
2021/05/04 06:41:06;;;;;;;1.95;1.00;;;9.60;99.90;;;;;;5053162;28;20181;-82
2021/05/04 06:43:32;;;;;;;1.23;1.13;;;9.60;99.90;;;;;;5032512;28;20186;-84
2021/05/04 06:45:58;;;;;;;1.80;1.65;;;9.70;99.90;;;;;;5048992;28;20205;-80
2021/05/04 06:48:24;;;;;;;1.20;1.10;;;9.70;99.90;;;;;;5034342;28;20221;-83
2021/05/04 06:50:51;;;;;;;2.80;1.03;;;9.70;99.90;;;;;;5034711;28;20413;-85
2021/05/04 06:53:16;;;;;;;3.80;1.30;;;9.70;99.90;;;;;;5016444;28;20269;-82
2021/05/04 06:55:42;;;;;;;3.47;1.27;;;9.80;99.90;;;;;;5032183;28;20568;-83
2021/05/04 06:58:07;;;;;;;2.53;1.50;;;9.90;99.90;;;;;;5032601;28;20265;-81
2021/05/04 07:00:33;;;;;;;1.70;1.17;;;9.90;99.90;;;;;;5033749;28;20170;-81
2021/05/04 07:03:02;;;;;;;1.80;1.10;;;10.00;99.90;;;;;;5032657;28;20200;-81
2021/05/04 07:05:28;;;;;;;2.35;0.95;;;10.00;99.90;;;;;;5015563;28;20642;-81
2021/05/04 07:07:53;;;;;;;1.53;1.17;;;10.10;99.90;;;;;;5033462;28;20280;-82
2021/05/04 07:10:19;;;;;;;1.00;0.90;;;10.10;99.90;;;;;;5033900;28;20566;-80
2021/05/04 07:12:45;;;;;;;1.07;0.93;;;10.20;99.90;;;;;;5016254;28;20186;-81
2021/05/04 07:15:11;;;;;;;1.00;0.90;;;10.20;99.90;;;;;;5031740;28;20174;-82
2021/05/04 07:17:37;;;;;;;1.30;0.93;;;10.20;99.90;;;;;;5033231;28;20190;-81
2021/05/04 07:20:03;;;;;;;1.93;1.00;;;10.20;99.90;;;;;;5049889;28;20776;-84
2021/05/04 07:22:30;;;;;;;1.67;1.03;;;10.20;99.90;;;;;;5032198;28;20186;-84
2021/05/04 07:24:55;;;;;;;1.90;1.25;;;10.10;99.90;;;;;;5031918;28;20451;-81
2021/05/04 07:27:22;;;;;;;4.70;1.07;;;10.20;99.90;;;;;;5033162;28;20198;-80
2021/05/04 07:29:48;;;;;;;1.00;0.90;;;10.20;99.90;;;;;;5032450;28;20584;-80
2021/05/04 07:32:18;;;;;;;1.90;1.30;;;10.30;99.90;;;;;;5032270;28;20288;-80
2021/05/04 07:34:44;;;;;;;2.40;1.05;;;10.30;99.90;;;;;;5031905;28;20224;-80
2021/05/04 07:37:10;;;;;;;0.85;0.80;;;10.40;99.90;;;;;;5033318;28;20221;-81
2021/05/04 07:39:37;;;;;;;0.80;0.80;;;10.40;99.90;;;;;;5033430;28;20212;-83
2021/05/04 07:42:04;;;;;;;1.98;0.93;;;10.50;99.90;;;;;;5033356;28;20171;-81
2021/05/04 07:44:30;;;;;;;1.15;0.90;;;10.60;99.90;;;;;;5031912;28;20264;-81
2021/05/04 07:46:56;;;;;;;1.47;0.80;;;10.60;99.90;;;;;;5032208;28;20277;-81
2021/05/04 07:49:30;;;;;;;3.03;1.00;;;10.70;99.90;;;;;;5032240;28;20174;-83
2021/05/04 07:51:57;;;;;;;1.95;1.02;;;10.70;99.90;;;;;;5032065;28;20189;-79
2021/05/04 07:54:24;;;;;;;2.23;1.00;;;10.90;99.90;;;;;;5033326;28;20527;-83
2021/05/04 07:56:49;;;;;;;1.65;0.98;;;10.90;99.90;;;;;;5031613;28;20433;-80
2021/05/04 07:59:15;;;;;;;1.50;1.00;;;11.00;99.90;;;;;;5031630;28;20203;-84
2021/05/04 08:01:41;;;;;;;2.50;1.27;;;11.00;99.90;;;;;;5032658;28;20186;-81
2021/05/04 08:04:06;;;;;;;2.17;0.90;;;11.00;99.90;;;;;;5031885;28;20228;-82
2021/05/04 08:06:32;;;;;;;1.43;1.00;;;11.00;99.90;;;;;;5031451;28;20214;-85
2021/05/04 08:08:59;;;;;;;1.80;0.87;;;11.00;99.90;;;;;;5032965;28;20733;-81
2021/05/04 08:11:26;;;;;;;1.33;0.90;;;11.10;99.90;;;;;;5032809;28;20186;-76
2021/05/04 08:13:52;;;;;;;1.30;1.10;;;11.10;99.90;;;;;;5031599;28;20527;-79
2021/05/04 08:16:18;;;;;;;2.70;1.10;;;11.10;99.90;;;;;;5030487;28;20440;-80
2021/05/04 08:18:45;;;;;;;1.00;0.77;;;10.90;99.90;;;;;;5031032;28;20177;-80
2021/05/04 08:21:11;;;;;;;1.75;1.00;;;10.90;99.90;;;;;;5031496;28;20627;-85
2021/05/04 08:23:37;;;;;;;1.53;0.97;;;10.90;99.90;;;;;;5031352;28;20182;-81
2021/05/04 08:26:02;;;;;;;1.67;1.07;;;11.10;99.90;;;;;;5031538;28;20202;-81
2021/05/04 08:28:28;;;;;;;2.30;1.00;;;11.10;99.90;;;;;;5036142;28;20178;-80
2021/05/04 08:30:54;;;;;;;2.27;1.20;;;11.20;99.90;;;;;;5032355;28;20222;-82
2021/05/04 08:33:21;;;;;;;1.07;0.97;;;11.10;99.90;;;;;;5045138;28;20641;-82
2021/05/04 08:35:47;;;;;;;2.33;1.17;;;11.10;99.90;;;;;;5054191;28;20205;-82
2021/05/04 08:38:13;;;;;;;1.70;1.45;;;11.10;99.90;;;;;;5053709;28;20423;-83
2021/05/04 08:40:40;;;;;;;1.80;1.30;;;11.00;99.90;;;;;;5053577;28;20652;-83
2021/05/04 08:43:05;;;;;;;2.00;1.40;;;11.00;99.90;;;;;;5055308;28;20431;-82
2021/05/04 08:45:32;;;;;;;4.30;1.30;;;10.90;99.90;;;;;;5055778;28;20177;-81
2021/05/04 08:47:58;;;;;;;2.58;1.00;;;10.90;99.90;;;;;;5055366;28;20192;-83
2021/05/04 08:50:24;;;;;;;3.80;1.20;;;11.00;99.90;;;;;;5053176;28;20201;-83
2021/05/04 08:52:51;;;;;;;1.53;1.10;;;11.10;99.90;;;;;;5054810;28;20464;-81
2021/05/04 08:55:17;;;;;;;1.90;1.00;;;11.20;99.90;;;;;;5053966;28;20180;-80
2021/05/04 08:57:43;;;;;;;2.03;1.10;;;11.40;99.90;;;;;;5054195;28;20190;-81
2021/05/04 09:00:11;;;;;;;3.60;1.20;;;11.60;99.90;;;;;;5054123;28;20481;-80
2021/05/04 09:02:59;;;;;;;2.90;1.10;;;11.80;99.90;;;;;;5036636;28;20181;-83
2021/05/04 09:05:42;;;;;;;2.33;1.30;;;11.90;99.90;;;;;;5053633;28;20402;-82
2021/05/04 09:08:35;;;;;;;1.53;1.40;;;12.20;99.90;;;;;;5053023;28;20451;-81
2021/05/04 09:11:18;;;;;;;2.60;1.07;;;12.30;99.90;;;;;;5053278;28;20438;-81
2021/05/04 09:14:00;;;;;;;2.50;0.90;;;12.10;99.90;;;;;;5053941;28;20415;-80
2021/05/04 09:19:09;;;;;;;1.57;0.80;;;12.30;99.90;;;;;;5053997;28;20416;-82
2021/05/04 09:21:41;;;;;;;1.30;0.80;;;12.30;99.90;;;;;;5054029;28;20204;-81
2021/05/04 09:24:17;;;;;;;1.20;0.80;;;12.30;99.90;;;;;;5054447;28;20511;-81
2021/05/04 09:26:42;;;;;;;1.17;0.80;;;12.50;99.90;;;;;;5051808;28;20442;-82
2021/05/04 09:29:10;;;;;;;1.40;0.80;;;12.50;99.90;;;;;;5055414;28;20400;-81
2021/05/04 09:31:37;;;;;;;3.60;0.90;;;12.40;99.90;;;;;;5055543;28;20540;-81
2021/05/04 09:34:09;;;;;;;4.03;0.77;;;12.30;99.90;;;;;;5050984;28;20432;-79
2021/05/04 09:36:49;;;;;;;1.77;0.70;;;12.10;99.90;;;;;;5051483;28;20444;-79
2021/05/04 09:39:29;;;;;;;3.47;0.90;;;12.00;99.90;;;;;;5051544;28;20510;-81
2021/05/04 09:41:57;;;;;;;6.20;0.90;;;12.20;99.90;;;;;;5053999;28;20427;-82
2021/05/04 09:44:42;;;;;;;2.50;0.80;;;12.20;99.90;;;;;;5052660;28;20427;-81
2021/05/04 09:47:13;;;;;;;3.93;0.90;;;12.30;99.90;;;;;;5053269;28;20410;-79
2021/05/04 09:49:40;;;;;;;1.10;1.00;;;12.80;99.90;;;;;;5053223;28;20559;-81
2021/05/04 09:52:33;;;;;;;1.20;0.80;;;13.10;99.90;;;;;;5053159;28;20542;-78
2021/05/04 09:55:16;;;;;;;1.73;0.80;;;13.40;99.90;;;;;;5052913;28;20417;-79
2021/05/04 09:57:44;;;;;;;4.70;1.00;;;13.40;99.90;;;;;;5053161;28;20431;-82
2021/05/04 10:00:12;;;;;;;2.50;1.20;;;13.70;99.90;;;;;;5053118;28;20590;-79
2021/05/04 10:02:39;;;;;;;5.13;0.83;;;13.80;99.90;;;;;;5053452;28;20482;-80
2021/05/04 10:05:07;;;;;;;5.27;1.43;;;13.60;99.90;;;;;;5051833;28;20420;-80
2021/05/04 10:07:34;;;;;;;2.93;1.23;;;13.30;99.90;;;;;;5053152;28;20430;-78
2021/05/04 10:10:01;;;;;;;2.50;1.50;;;13.10;99.90;;;;;;5034994;28;20427;-80
2021/05/04 10:12:30;;;;;;;3.97;1.10;;;13.10;99.90;;;;;;5051293;28;20464;-78
2021/05/04 10:15:00;;;;;;;5.53;1.13;;;13.40;99.90;;;;;;5052544;28;20444;-79
2021/05/04 10:17:26;;;;;;;5.83;1.23;;;13.70;99.90;;;;;;5053464;28;20510;-81
2021/05/04 10:19:53;;;;;;;3.33;1.03;;;13.40;99.90;;;;;;5051036;28;20434;-80
2021/05/04 10:22:20;;;;;;;2.77;1.10;;;13.60;99.90;;;;;;5053249;28;20420;-79
2021/05/04 10:24:49;;;;;;;4.10;1.10;;;13.70;99.90;;;;;;5052134;28;20402;-79
2021/05/04 10:27:18;;;;;;;2.57;1.10;;;14.40;99.90;;;;;;5051073;28;20435;-78
2021/05/04 10:29:44;;;;;;;1.20;0.80;;;14.50;99.90;;;;;;5052577;28;20538;-82
2021/05/04 10:32:13;;;;;;;3.90;1.40;;;14.30;99.90;;;;;;5052098;28;20966;-80
2021/05/04 10:34:40;;;;;;;3.50;1.37;;;14.30;99.90;;;;;;5051368;28;20390;-81
2021/05/04 10:37:24;;;;;;;2.50;1.10;;;13.90;99.90;;;;;;5050384;28;20873;-82
2021/05/04 10:39:50;;;;;;;4.73;1.50;;;13.60;99.90;;;;;;5050493;28;20485;-81
2021/05/04 10:42:32;;;;;;;6.63;1.40;;;13.40;99.90;;;;;;5052590;28;20896;-81
2021/05/04 10:44:57;;;;;;;3.10;1.40;;;13.40;99.90;;;;;;5050818;28;20181;-79
2021/05/04 10:47:48;;;;;;;11.63;1.80;;;13.50;99.90;;;;;;5051711;28;21245;-80
2021/05/04 10:50:17;;;;;;;42.67;3.97;;;13.40;99.90;;;;;;5051353;28;20185;-80
2021/05/04 10:52:50;;;;;;;30.03;4.70;;;13.40;99.90;;;;;;5051886;28;20519;-82
2021/05/04 10:55:21;;;;;;;17.90;2.80;;;13.50;99.90;;;;;;5049541;28;20470;-82
2021/05/04 10:58:01;;;;;;;7.90;1.77;;;13.80;99.90;;;;;;5052187;28;20527;-81
2021/05/04 11:00:53;;;;;;;4.70;1.23;;;13.90;99.90;;;;;;5053592;28;20763;-82
2021/05/04 11:05:57;;;;;;;3.67;1.40;;;14.20;99.90;;;;;;5052827;28;20848;-80
2021/05/04 11:08:24;;;;;;;3.40;1.80;;;14.60;99.90;;;;;;5051659;28;20523;-81
2021/05/04 11:11:28;;;;;;;9.83;1.80;;;14.70;99.90;;;;;;5053335;28;20408;-79
2021/05/04 11:14:03;;;;;;;12.30;2.10;;;15.00;99.90;;;;;;5053499;28;20452;-79
2021/05/04 11:16:33;;;;;;;10.93;2.13;;;14.90;99.90;;;;;;5035133;28;20786;-78
2021/05/04 11:19:19;;;;;;;61.67;6.10;;;14.50;99.90;;;;;;5051465;28;20404;-81
2021/05/04 11:21:52;;;;;;;83.37;9.17;;;14.30;99.90;;;;;;5049710;28;20390;-78
2021/05/04 11:24:23;;;;;;;87.03;12.40;;;14.20;99.90;;;;;;5051666;28;20390;-79
2021/05/04 11:26:53;;;;;;;64.13;9.17;;;14.00;99.90;;;;;;5049494;28;20439;-80
2021/05/04 11:29:24;;;;;;;92.70;10.83;;;13.80;99.90;;;;;;5050198;28;20423;-81
2021/05/04 11:31:52;;;;;;;44.33;7.50;;;13.50;99.90;;;;;;5050175;28;20752;-80
2021/05/04 11:34:40;;;;;;;47.77;5.20;;;13.50;99.90;;;;;;5049537;28;20394;-82
2021/05/04 11:37:36;;;;;;;51.10;6.10;;;13.40;99.90;;;;;;5049977;28;20439;-80
2021/05/04 11:40:25;;;;;;;60.07;7.17;;;13.60;99.90;;;;;;5051252;28;20399;-78
2021/05/04 11:43:01;;;;;;;44.97;4.47;;;13.90;99.90;;;;;;5050877;28;20773;-78
2021/05/04 11:45:32;;;;;;;18.23;3.30;;;14.00;99.90;;;;;;5049721;28;20398;-77
2021/05/04 11:48:01;;;;;;;77.93;7.30;;;14.00;99.90;;;;;;5051120;28;20415;-79
2021/05/04 11:50:31;;;;;;;46.73;6.20;;;14.40;99.90;;;;;;5049297;28;20419;-79
2021/05/04 11:53:11;;;;;;;73.73;8.23;;;14.10;99.90;;;;;;5052099;28;20456;-79
2021/05/04 11:55:45;;;;;;;65.07;8.93;;;14.10;99.90;;;;;;5051422;28;20796;-81
2021/05/04 11:58:22;;;;;;;80.13;11.20;;;13.70;99.90;;;;;;5051877;28;20400;-78
2021/05/04 12:00:59;;;;;;;132.20;14.07;;;13.70;99.90;;;;;;5053305;28;20388;-80
2021/05/04 12:03:25;;;;;;;115.03;11.00;;;13.80;99.90;;;;;;5055998;28;20789;-81
2021/05/04 12:05:51;;;;;;;80.83;9.80;;;14.10;99.90;;;;;;5050889;28;20425;-80
2021/05/04 12:08:16;;;;;;;48.63;5.90;;;14.10;99.90;;;;;;5039428;28;20499;-83
2021/05/04 12:10:48;;;;;;;52.03;5.97;;;14.00;99.90;;;;;;5050630;28;20185;-81
2021/05/04 12:13:20;;;;;;;70.60;8.03;;;14.00;99.90;;;;;;5033994;28;20198;-80
2021/05/04 12:15:48;;;;;;;88.77;7.50;;;14.20;99.90;;;;;;5034799;28;20943;-80
2021/05/04 12:18:23;;;;;;;16.83;3.30;;;14.10;99.90;;;;;;5034838;28;20477;-81
2021/05/04 12:20:53;;;;;;;35.73;4.13;;;13.90;99.90;;;;;;5050215;28;20402;-84
2021/05/04 12:23:31;;;;;;;84.93;8.80;;;13.80;99.90;;;;;;5035686;28;20409;-79
2021/05/04 12:26:05;;;;;;;76.97;7.70;;;13.90;99.90;;;;;;5033893;28;20464;-78
2021/05/04 12:28:43;;;;;;;87.30;8.50;;;14.00;99.90;;;;;;5034485;28;20406;-81
2021/05/04 12:31:18;;;;;;;43.53;5.30;;;14.10;99.90;;;;;;5050889;28;20422;-78
2021/05/04 12:34:04;;;;;;;40.10;4.90;;;14.00;99.90;;;;;;5034717;28;20415;-81
2021/05/04 12:36:37;;;;;;;42.67;6.77;;;13.90;99.90;;;;;;5034963;28;20429;-79
2021/05/04 12:39:11;;;;;;;83.83;7.90;;;14.00;99.90;;;;;;5053324;28;20420;-80
2021/05/04 12:41:39;;;;;;;67.30;7.03;;;14.00;99.90;;;;;;5053364;28;20402;-82
2021/05/04 12:44:21;;;;;;;41.50;6.50;;;14.50;99.90;;;;;;5036910;28;20443;-81
2021/05/04 12:46:51;;;;;;;15.90;2.67;;;15.00;99.90;;;;;;5053568;28;20448;-79
2021/05/04 12:49:17;;;;;;;15.83;5.93;;;15.00;99.90;;;;;;5053904;28;20546;-80
2021/05/04 12:51:49;;;;;;;53.90;5.07;;;15.40;99.90;;;;;;5054747;28;20425;-79
2021/05/04 12:54:21;;;;;;;69.13;6.90;;;15.40;99.90;;;;;;5054436;28;20436;-79
2021/05/04 12:56:54;;;;;;;62.80;8.27;;;15.20;99.90;;;;;;5053740;28;20439;-79
2021/05/04 12:59:30;;;;;;;61.57;7.37;;;14.70;99.90;;;;;;5054683;28;20827;-80